sensor_id;sensor_type;location;lat;lon;timestamp;temperature;humidity
39017;DHT22;24784;45.582;5.276;2023-03-21T00:01:22;6.30;99.90
39017;DHT22;24784;45.582;5.276;2023-03-21T00:03:48;6.30;99.90
39017;DHT22;24784;45.582;5.276;2023-03-21T00:06:16;6.30;99.90
39017;DHT22;24784;45.582;5.276;2023-03-21T00:08:42;6.20;99.90
39017;DHT22;24784;45.582;5.276;2023-03-21T00:11:10;6.10;99.90
39017;DHT22;24784;45.582;5.276;2023-03-21T00:13:37;6.10;99.90
39017;DHT22;24784;45.582;5.276;2023-03-21T00:16:12;6.20;99.90
39017;DHT22;24784;45.582;5.276;2023-03-21T00:18:46;6.20;99.90
39017;DHT22;24784;45.582;5.276;2023-03-21T00:21:18;6.20;99.90
39017;DHT22;24784;45.582;5.276;2023-03-21T00:23:45;6.20;99.90
39017;DHT22;24784;45.582;5.276;2023-03-21T00:26:12;6.10;99.90
39017;DHT22;24784;45.582;5.276;2023-03-21T00:28:40;6.20;99.90
39017;DHT22;24784;45.582;5.276;2023-03-21T00:31:07;6.20;99.90
39017;DHT22;24784;45.582;5.276;2023-03-21T00:33:33;6.00;99.90
39017;DHT22;24784;45.582;5.276;2023-03-21T00:36:00;6.10;99.90
39017;DHT22;24784;45.582;5.276;2023-03-21T00:38:27;6.10;99.90
39017;DHT22;24784;45.582;5.276;2023-03-21T00:40:53;6.00;99.90
39017;DHT22;24784;45.582;5.276;2023-03-21T00:43:19;5.90;99.90
39017;DHT22;24784;45.582;5.276;2023-03-21T00:45:49;6.10;99.90
39017;DHT22;24784;45.582;5.276;2023-03-21T00:48:16;6.20;99.90
39017;DHT22;24784;45.582;5.276;2023-03-21T00:50:44;6.10;99.90
39017;DHT22;24784;45.582;5.276;2023-03-21T00:53:12;5.90;99.90
39017;DHT22;24784;45.582;5.276;2023-03-21T00:55:39;6.00;99.90
39017;DHT22;24784;45.582;5.276;2023-03-21T00:58:05;5.90;99.90
39017;DHT22;24784;45.582;5.276;2023-03-21T01:00:31;5.90;99.90
39017;DHT22;24784;45.582;5.276;2023-03-21T01:02:58;5.90;99.90
39017;DHT22;24784;45.582;5.276;2023-03-21T01:05:32;5.90;99.90
39017;DHT22;24784;45.582;5.276;2023-03-21T01:08:17;5.90;99.90
39017;DHT22;24784;45.582;5.276;2023-03-21T01:10:47;5.80;99.90
39017;DHT22;24784;45.582;5.276;2023-03-21T01:13:15;5.80;99.90
39017;DHT22;24784;45.582;5.276;2023-03-21T01:15:49;5.80;99.90
39017;DHT22;24784;45.582;5.276;2023-03-21T01:18:17;5.70;99.90
39017;DHT22;24784;45.582;5.276;2023-03-21T01:20:47;5.80;99.90
39017;DHT22;24784;45.582;5.276;2023-03-21T01:23:14;5.90;99.90
39017;DHT22;24784;45.582;5.276;2023-03-21T01:25:40;5.80;99.90
39017;DHT22;24784;45.582;5.276;2023-03-21T01:28:07;5.90;99.90
39017;DHT22;24784;45.582;5.276;2023-03-21T01:30:33;5.70;99.90
39017;DHT22;24784;45.582;5.276;2023-03-21T01:33:00;5.70;99.90
39017;DHT22;24784;45.582;5.276;2023-03-21T01:35:25;5.60;99.90
39017;DHT22;24784;45.582;5.276;2023-03-21T01:37:51;5.60;99.90
39017;DHT22;24784;45.582;5.276;2023-03-21T01:40:22;5.70;99.90
39017;DHT22;24784;45.582;5.276;2023-03-21T01:42:49;5.70;99.90
39017;DHT22;24784;45.582;5.276;2023-03-21T01:48:20;5.70;99.90
39017;DHT22;24784;45.582;5.276;2023-03-21T01:50:48;5.60;99.90
39017;DHT22;24784;45.582;5.276;2023-03-21T01:53:14;5.50;99.90
39017;DHT22;24784;45.582;5.276;2023-03-21T01:55:41;5.50;99.90
39017;DHT22;24784;45.582;5.276;2023-03-21T01:58:09;5.60;99.90
39017;DHT22;24784;45.582;5.276;2023-03-21T02:00:37;5.60;99.90
39017;DHT22;24784;45.582;5.276;2023-03-21T02:03:07;5.60;99.90
39017;DHT22;24784;45.582;5.276;2023-03-21T02:06:12;5.60;99.90
39017;DHT22;24784;45.582;5.276;2023-03-21T02:08:39;5.70;99.90
39017;DHT22;24784;45.582;5.276;2023-03-21T02:11:07;5.80;99.90
39017;DHT22;24784;45.582;5.276;2023-03-21T02:13:34;5.70;99.90
39017;DHT22;24784;45.582;5.276;2023-03-21T02:16:32;5.60;99.90
39017;DHT22;24784;45.582;5.276;2023-03-21T02:27:43;5.40;99.90
39017;DHT22;24784;45.582;5.276;2023-03-21T02:36:26;5.50;99.90
39017;DHT22;24784;45.582;5.276;2023-03-21T02:42:01;5.40;99.90
39017;DHT22;24784;45.582;5.276;2023-03-21T02:44:38;5.50;99.90
39017;DHT22;24784;45.582;5.276;2023-03-21T02:49:49;5.50;99.90
39017;DHT22;24784;45.582;5.276;2023-03-21T02:52:21;5.40;99.90
39017;DHT22;24784;45.582;5.276;2023-03-21T02:54:48;5.40;99.90
39017;DHT22;24784;45.582;5.276;2023-03-21T02:57:17;5.40;99.90
39017;DHT22;24784;45.582;5.276;2023-03-21T02:59:46;5.30;99.90
39017;DHT22;24784;45.582;5.276;2023-03-21T03:02:15;5.20;99.90
39017;DHT22;24784;45.582;5.276;2023-03-21T03:04:42;5.10;99.90
39017;DHT22;24784;45.582;5.276;2023-03-21T03:07:24;5.10;99.90
39017;DHT22;24784;45.582;5.276;2023-03-21T03:10:20;5.10;99.90
39017;DHT22;24784;45.582;5.276;2023-03-21T03:13:29;5.00;99.90
39017;DHT22;24784;45.582;5.276;2023-03-21T03:18:59;5.10;99.90
39017;DHT22;24784;45.582;5.276;2023-03-21T03:24:13;5.00;99.90
39017;DHT22;24784;45.582;5.276;2023-03-21T03:26:53;5.00;99.90
39017;DHT22;24784;45.582;5.276;2023-03-21T03:29:22;5.00;99.90
39017;DHT22;24784;45.582;5.276;2023-03-21T03:31:57;5.00;99.90
39017;DHT22;24784;45.582;5.276;2023-03-21T03:34:31;5.00;99.90
39017;DHT22;24784;45.582;5.276;2023-03-21T03:37:01;4.90;99.90
39017;DHT22;24784;45.582;5.276;2023-03-21T03:42:34;4.90;99.90
39017;DHT22;24784;45.582;5.276;2023-03-21T03:45:02;4.80;99.90
39017;DHT22;24784;45.582;5.276;2023-03-21T03:47:43;4.80;99.90
39017;DHT22;24784;45.582;5.276;2023-03-21T03:50:13;4.80;99.90
39017;DHT22;24784;45.582;5.276;2023-03-21T03:52:48;4.80;99.90
39017;DHT22;24784;45.582;5.276;2023-03-21T03:55:16;4.70;99.90
39017;DHT22;24784;45.582;5.276;2023-03-21T03:57:43;4.80;99.90
39017;DHT22;24784;45.582;5.276;2023-03-21T04:00:14;4.80;99.90
39017;DHT22;24784;45.582;5.276;2023-03-21T04:02:42;4.80;99.90
39017;DHT22;24784;45.582;5.276;2023-03-21T04:05:08;4.70;99.90
39017;DHT22;24784;45.582;5.276;2023-03-21T04:07:34;4.70;99.90
39017;DHT22;24784;45.582;5.276;2023-03-21T04:10:00;4.70;99.90
39017;DHT22;24784;45.582;5.276;2023-03-21T04:12:26;4.60;99.90
39017;DHT22;24784;45.582;5.276;2023-03-21T04:14:55;4.70;99.90
39017;DHT22;24784;45.582;5.276;2023-03-21T04:17:21;4.70;99.90
39017;DHT22;24784;45.582;5.276;2023-03-21T04:19:47;4.60;99.90
39017;DHT22;24784;45.582;5.276;2023-03-21T04:22:16;4.70;99.90
39017;DHT22;24784;45.582;5.276;2023-03-21T04:24:42;4.70;99.90
39017;DHT22;24784;45.582;5.276;2023-03-21T04:27:09;4.60;99.90
39017;DHT22;24784;45.582;5.276;2023-03-21T04:29:35;4.50;99.90
39017;DHT22;24784;45.582;5.276;2023-03-21T04:32:01;4.60;99.90
39017;DHT22;24784;45.582;5.276;2023-03-21T04:34:28;4.70;99.90
39017;DHT22;24784;45.582;5.276;2023-03-21T04:36:54;4.70;99.90
39017;DHT22;24784;45.582;5.276;2023-03-21T04:39:20;4.70;99.90
39017;DHT22;24784;45.582;5.276;2023-03-21T04:41:47;4.70;99.90
39017;DHT22;24784;45.582;5.276;2023-03-21T04:44:15;4.60;99.90
39017;DHT22;24784;45.582;5.276;2023-03-21T04:46:42;4.60;99.90
39017;DHT22;24784;45.582;5.276;2023-03-21T04:49:08;4.50;99.90
39017;DHT22;24784;45.582;5.276;2023-03-21T04:51:35;4.50;99.90
39017;DHT22;24784;45.582;5.276;2023-03-21T04:54:01;4.50;99.90
39017;DHT22;24784;45.582;5.276;2023-03-21T04:56:28;4.50;99.90
39017;DHT22;24784;45.582;5.276;2023-03-21T04:59:06;4.60;99.90
39017;DHT22;24784;45.582;5.276;2023-03-21T05:01:32;4.50;99.90
39017;DHT22;24784;45.582;5.276;2023-03-21T05:04:00;4.50;99.90
39017;DHT22;24784;45.582;5.276;2023-03-21T05:06:26;4.60;99.90
39017;DHT22;24784;45.582;5.276;2023-03-21T05:08:57;4.60;99.90
39017;DHT22;24784;45.582;5.276;2023-03-21T05:11:30;4.50;99.90
39017;DHT22;24784;45.582;5.276;2023-03-21T05:13:59;4.40;99.90
39017;DHT22;24784;45.582;5.276;2023-03-21T05:16:25;4.30;99.90
39017;DHT22;24784;45.582;5.276;2023-03-21T05:18:55;4.40;99.90
39017;DHT22;24784;45.582;5.276;2023-03-21T05:21:22;4.30;99.90
39017;DHT22;24784;45.582;5.276;2023-03-21T05:23:48;4.50;99.90
39017;DHT22;24784;45.582;5.276;2023-03-21T05:26:20;4.50;99.90
39017;DHT22;24784;45.582;5.276;2023-03-21T05:28:46;4.50;99.90
39017;DHT22;24784;45.582;5.276;2023-03-21T05:31:16;4.50;99.90
39017;DHT22;24784;45.582;5.276;2023-03-21T05:33:44;4.60;99.90
39017;DHT22;24784;45.582;5.276;2023-03-21T05:36:10;4.60;99.90
39017;DHT22;24784;45.582;5.276;2023-03-21T05:38:37;4.50;99.90
39017;DHT22;24784;45.582;5.276;2023-03-21T05:41:04;4.40;99.90
39017;DHT22;24784;45.582;5.276;2023-03-21T05:43:30;4.40;99.90
39017;DHT22;24784;45.582;5.276;2023-03-21T05:45:56;4.30;99.90
39017;DHT22;24784;45.582;5.276;2023-03-21T05:48:22;4.20;99.90
39017;DHT22;24784;45.582;5.276;2023-03-21T05:50:48;4.20;99.90
39017;DHT22;24784;45.582;5.276;2023-03-21T05:53:14;4.30;99.90
39017;DHT22;24784;45.582;5.276;2023-03-21T05:55:40;4.30;99.90
39017;DHT22;24784;45.582;5.276;2023-03-21T05:58:06;4.20;99.90
39017;DHT22;24784;45.582;5.276;2023-03-21T06:00:32;4.40;99.90
39017;DHT22;24784;45.582;5.276;2023-03-21T06:02:58;4.50;99.90
39017;DHT22;24784;45.582;5.276;2023-03-21T06:05:24;4.60;99.90
39017;DHT22;24784;45.582;5.276;2023-03-21T06:07:50;4.60;99.90
39017;DHT22;24784;45.582;5.276;2023-03-21T06:10:16;4.50;99.90
39017;DHT22;24784;45.582;5.276;2023-03-21T06:12:42;4.50;99.90
39017;DHT22;24784;45.582;5.276;2023-03-21T06:15:08;4.50;99.90
39017;DHT22;24784;45.582;5.276;2023-03-21T06:17:34;4.40;99.90
39017;DHT22;24784;45.582;5.276;2023-03-21T06:20:00;4.40;99.90
39017;DHT22;24784;45.582;5.276;2023-03-21T06:22:28;4.40;99.90
39017;DHT22;24784;45.582;5.276;2023-03-21T06:24:54;4.50;99.90
39017;DHT22;24784;45.582;5.276;2023-03-21T06:27:20;4.50;99.90
39017;DHT22;24784;45.582;5.276;2023-03-21T06:29:46;4.50;99.90
39017;DHT22;24784;45.582;5.276;2023-03-21T06:32:12;4.50;99.90
39017;DHT22;24784;45.582;5.276;2023-03-21T06:34:38;4.50;99.90
39017;DHT22;24784;45.582;5.276;2023-03-21T06:37:04;4.50;99.90
39017;DHT22;24784;45.582;5.276;2023-03-21T06:39:30;4.50;99.90
39017;DHT22;24784;45.582;5.276;2023-03-21T06:41:58;4.50;99.90
39017;DHT22;24784;45.582;5.276;2023-03-21T06:44:24;4.70;99.90
39017;DHT22;24784;45.582;5.276;2023-03-21T06:46:51;4.70;99.90
39017;DHT22;24784;45.582;5.276;2023-03-21T06:49:17;4.70;99.90
39017;DHT22;24784;45.582;5.276;2023-03-21T06:51:43;4.80;99.90
39017;DHT22;24784;45.582;5.276;2023-03-21T06:54:09;4.90;99.90
39017;DHT22;24784;45.582;5.276;2023-03-21T06:56:35;4.90;99.90
39017;DHT22;24784;45.582;5.276;2023-03-21T06:59:01;4.90;99.90
39017;DHT22;24784;45.582;5.276;2023-03-21T07:01:27;4.90;99.90
39017;DHT22;24784;45.582;5.276;2023-03-21T07:03:55;5.00;99.90
39017;DHT22;24784;45.582;5.276;2023-03-21T07:06:23;5.00;99.90
39017;DHT22;24784;45.582;5.276;2023-03-21T07:08:51;5.00;99.90
39017;DHT22;24784;45.582;5.276;2023-03-21T07:11:17;5.00;99.90
39017;DHT22;24784;45.582;5.276;2023-03-21T07:13:43;5.10;99.90
39017;DHT22;24784;45.582;5.276;2023-03-21T07:16:09;5.20;99.90
39017;DHT22;24784;45.582;5.276;2023-03-21T07:18:35;5.30;99.90
39017;DHT22;24784;45.582;5.276;2023-03-21T07:21:01;5.30;99.90
39017;DHT22;24784;45.582;5.276;2023-03-21T07:23:27;5.30;99.90
39017;DHT22;24784;45.582;5.276;2023-03-21T07:25:54;5.30;99.90
39017;DHT22;24784;45.582;5.276;2023-03-21T07:28:21;5.40;99.90
39017;DHT22;24784;45.582;5.276;2023-03-21T07:30:56;5.50;99.90
39017;DHT22;24784;45.582;5.276;2023-03-21T07:33:22;5.70;99.90
39017;DHT22;24784;45.582;5.276;2023-03-21T07:35:50;5.70;99.90
39017;DHT22;24784;45.582;5.276;2023-03-21T07:38:17;5.70;99.90
39017;DHT22;24784;45.582;5.276;2023-03-21T07:40:44;5.70;99.90
39017;DHT22;24784;45.582;5.276;2023-03-21T07:43:10;5.80;99.90
39017;DHT22;24784;45.582;5.276;2023-03-21T07:45:36;5.90;99.90
39017;DHT22;24784;45.582;5.276;2023-03-21T07:48:02;6.00;99.90
39017;DHT22;24784;45.582;5.276;2023-03-21T07:50:28;6.10;99.90
39017;DHT22;24784;45.582;5.276;2023-03-21T07:52:54;6.20;99.90
39017;DHT22;24784;45.582;5.276;2023-03-21T07:55:20;6.30;99.90
39017;DHT22;24784;45.582;5.276;2023-03-21T07:57:49;6.40;99.90
39017;DHT22;24784;45.582;5.276;2023-03-21T08:00:17;6.50;99.90
39017;DHT22;24784;45.582;5.276;2023-03-21T08:02:56;6.60;99.90
39017;DHT22;24784;45.582;5.276;2023-03-21T08:05:34;6.70;99.90
39017;DHT22;24784;45.582;5.276;2023-03-21T08:08:00;6.90;99.90
39017;DHT22;24784;45.582;5.276;2023-03-21T08:10:26;7.20;99.90
39017;DHT22;24784;45.582;5.276;2023-03-21T08:12:52;7.40;99.90
39017;DHT22;24784;45.582;5.276;2023-03-21T08:15:18;7.70;99.90
39017;DHT22;24784;45.582;5.276;2023-03-21T08:17:45;7.90;99.90
39017;DHT22;24784;45.582;5.276;2023-03-21T08:20:14;8.00;99.90
39017;DHT22;24784;45.582;5.276;2023-03-21T08:22:42;8.30;99.90
39017;DHT22;24784;45.582;5.276;2023-03-21T08:25:09;8.60;99.90
39017;DHT22;24784;45.582;5.276;2023-03-21T08:27:39;9.00;99.90
39017;DHT22;24784;45.582;5.276;2023-03-21T08:30:05;9.20;99.90
39017;DHT22;24784;45.582;5.276;2023-03-21T08:32:31;9.50;99.90
39017;DHT22;24784;45.582;5.276;2023-03-21T08:35:01;9.70;99.90
39017;DHT22;24784;45.582;5.276;2023-03-21T08:37:28;10.00;99.90
39017;DHT22;24784;45.582;5.276;2023-03-21T08:39:54;10.10;99.90
39017;DHT22;24784;45.582;5.276;2023-03-21T08:42:21;10.30;99.90
39017;DHT22;24784;45.582;5.276;2023-03-21T08:44:48;10.60;99.90
39017;DHT22;24784;45.582;5.276;2023-03-21T08:47:14;10.70;99.90
39017;DHT22;24784;45.582;5.276;2023-03-21T08:49:40;11.20;99.90
39017;DHT22;24784;45.582;5.276;2023-03-21T08:52:06;11.40;99.90
39017;DHT22;24784;45.582;5.276;2023-03-21T08:54:32;11.40;99.90
39017;DHT22;24784;45.582;5.276;2023-03-21T08:56:58;11.70;99.90
39017;DHT22;24784;45.582;5.276;2023-03-21T08:59:24;12.00;99.90
39017;DHT22;24784;45.582;5.276;2023-03-21T09:01:50;12.20;99.90
39017;DHT22;24784;45.582;5.276;2023-03-21T09:04:16;12.10;99.90
39017;DHT22;24784;45.582;5.276;2023-03-21T09:06:43;12.40;99.90
39017;DHT22;24784;45.582;5.276;2023-03-21T09:09:14;12.90;99.90
39017;DHT22;24784;45.582;5.276;2023-03-21T09:11:40;13.30;99.90
39017;DHT22;24784;45.582;5.276;2023-03-21T09:14:06;13.50;99.90
39017;DHT22;24784;45.582;5.276;2023-03-21T09:16:32;13.40;99.90
39017;DHT22;24784;45.582;5.276;2023-03-21T09:18:58;13.70;99.90
39017;DHT22;24784;45.582;5.276;2023-03-21T09:21:26;13.60;99.90
39017;DHT22;24784;45.582;5.276;2023-03-21T09:23:53;13.60;99.90
39017;DHT22;24784;45.582;5.276;2023-03-21T09:26:21;13.80;99.90
39017;DHT22;24784;45.582;5.276;2023-03-21T09:28:48;14.10;99.90
39017;DHT22;24784;45.582;5.276;2023-03-21T09:31:15;14.40;99.90
39017;DHT22;24784;45.582;5.276;2023-03-21T09:33:46;14.10;99.90
39017;DHT22;24784;45.582;5.276;2023-03-21T09:36:12;14.10;99.90
39017;DHT22;24784;45.582;5.276;2023-03-21T09:38:42;14.50;99.90
39017;DHT22;24784;45.582;5.276;2023-03-21T09:49:44;15.70;99.70
39017;DHT22;24784;45.582;5.276;2023-03-21T09:52:41;15.40;99.90
39017;DHT22;24784;45.582;5.276;2023-03-21T09:55:23;15.60;99.90
39017;DHT22;24784;45.582;5.276;2023-03-21T10:00:37;16.10;99.20
39017;DHT22;24784;45.582;5.276;2023-03-21T10:03:23;15.30;99.50
39017;DHT22;24784;45.582;5.276;2023-03-21T10:05:54;15.80;99.90
39017;DHT22;24784;45.582;5.276;2023-03-21T10:10:59;16.10;98.80
39017;DHT22;24784;45.582;5.276;2023-03-21T10:13:33;16.10;98.90
39017;DHT22;24784;45.582;5.276;2023-03-21T10:16:08;15.70;98.20
39017;DHT22;24784;45.582;5.276;2023-03-21T10:18:35;15.90;98.70
39017;DHT22;24784;45.582;5.276;2023-03-21T10:21:03;17.00;98.80
39017;DHT22;24784;45.582;5.276;2023-03-21T10:23:29;17.10;99.10
39017;DHT22;24784;45.582;5.276;2023-03-21T10:26:00;17.40;97.10
39017;DHT22;24784;45.582;5.276;2023-03-21T10:28:31;17.10;96.90
39017;DHT22;24784;45.582;5.276;2023-03-21T10:31:02;17.10;97.80
39017;DHT22;24784;45.582;5.276;2023-03-21T10:33:37;17.30;97.40
39017;DHT22;24784;45.582;5.276;2023-03-21T10:36:09;18.00;96.60
39017;DHT22;24784;45.582;5.276;2023-03-21T10:38:39;16.70;94.70
39017;DHT22;24784;45.582;5.276;2023-03-21T10:41:09;17.10;96.70
39017;DHT22;24784;45.582;5.276;2023-03-21T10:43:38;17.00;94.70
39017;DHT22;24784;45.582;5.276;2023-03-21T10:46:11;17.50;97.80
39017;DHT22;24784;45.582;5.276;2023-03-21T10:48:39;18.40;96.00
39017;DHT22;24784;45.582;5.276;2023-03-21T10:51:08;18.30;95.00
39017;DHT22;24784;45.582;5.276;2023-03-21T10:53:45;18.30;94.40
39017;DHT22;24784;45.582;5.276;2023-03-21T10:56:14;17.90;94.80
39017;DHT22;24784;45.582;5.276;2023-03-21T11:01:17;19.00;95.30
39017;DHT22;24784;45.582;5.276;2023-03-21T11:04:04;19.30;95.70
39017;DHT22;24784;45.582;5.276;2023-03-21T11:06:32;19.10;93.20
39017;DHT22;24784;45.582;5.276;2023-03-21T11:09:14;18.60;93.40
39017;DHT22;24784;45.582;5.276;2023-03-21T11:11:52;18.30;92.90
39017;DHT22;24784;45.582;5.276;2023-03-21T11:14:40;18.20;95.00
39017;DHT22;24784;45.582;5.276;2023-03-21T11:19:45;17.90;94.90
39017;DHT22;24784;45.582;5.276;2023-03-21T11:22:12;18.00;94.70
39017;DHT22;24784;45.582;5.276;2023-03-21T11:24:38;18.40;93.90
39017;DHT22;24784;45.582;5.276;2023-03-21T11:27:06;18.90;93.40
39017;DHT22;24784;45.582;5.276;2023-03-21T11:29:37;18.20;92.00
39017;DHT22;24784;45.582;5.276;2023-03-21T11:32:18;18.20;92.70
39017;DHT22;24784;45.582;5.276;2023-03-21T11:35:05;18.30;92.70
39017;DHT22;24784;45.582;5.276;2023-03-21T11:37:42;18.50;94.10
39017;DHT22;24784;45.582;5.276;2023-03-21T11:40:27;17.90;93.10
39017;DHT22;24784;45.582;5.276;2023-03-21T11:45:24;18.40;91.90
39017;DHT22;24784;45.582;5.276;2023-03-21T11:47:53;18.60;91.40
39017;DHT22;24784;45.582;5.276;2023-03-21T11:50:27;19.10;91.60
39017;DHT22;24784;45.582;5.276;2023-03-21T12:06:41;19.50;90.20
39017;DHT22;24784;45.582;5.276;2023-03-21T12:09:24;18.80;90.00
39017;DHT22;24784;45.582;5.276;2023-03-21T12:20:39;18.70;89.20
39017;DHT22;24784;45.582;5.276;2023-03-21T12:23:26;18.70;84.30
39017;DHT22;24784;45.582;5.276;2023-03-21T12:26:26;19.40;86.30
39017;DHT22;24784;45.582;5.276;2023-03-21T12:39:38;19.60;81.60
39017;DHT22;24784;45.582;5.276;2023-03-21T12:44:58;19.60;82.50
39017;DHT22;24784;45.582;5.276;2023-03-21T12:47:29;19.60;80.90
39017;DHT22;24784;45.582;5.276;2023-03-21T12:50:27;19.50;77.80
39017;DHT22;24784;45.582;5.276;2023-03-21T12:52:59;19.20;79.50
39017;DHT22;24784;45.582;5.276;2023-03-21T12:55:29;19.50;78.40
39017;DHT22;24784;45.582;5.276;2023-03-21T12:58:10;19.30;80.30
39017;DHT22;24784;45.582;5.276;2023-03-21T13:00:54;19.50;85.20
39017;DHT22;24784;45.582;5.276;2023-03-21T13:03:55;19.70;82.90
39017;DHT22;24784;45.582;5.276;2023-03-21T13:06:23;20.00;82.10
39017;DHT22;24784;45.582;5.276;2023-03-21T13:09:14;19.90;81.40
39017;DHT22;24784;45.582;5.276;2023-03-21T13:11:43;20.00;80.70
39017;DHT22;24784;45.582;5.276;2023-03-21T13:14:36;20.00;80.20
39017;DHT22;24784;45.582;5.276;2023-03-21T13:17:05;20.00;79.50
39017;DHT22;24784;45.582;5.276;2023-03-21T13:19:42;20.00;78.80
39017;DHT22;24784;45.582;5.276;2023-03-21T13:22:29;19.70;79.10
39017;DHT22;24784;45.582;5.276;2023-03-21T13:25:06;19.70;79.30
39017;DHT22;24784;45.582;5.276;2023-03-21T13:27:37;19.70;78.50
39017;DHT22;24784;45.582;5.276;2023-03-21T13:30:23;19.90;79.50
39017;DHT22;24784;45.582;5.276;2023-03-21T13:33:12;19.80;78.00
39017;DHT22;24784;45.582;5.276;2023-03-21T13:35:40;19.70;77.00
39017;DHT22;24784;45.582;5.276;2023-03-21T13:38:14;19.70;76.20
39017;DHT22;24784;45.582;5.276;2023-03-21T13:40:47;19.60;76.60
39017;DHT22;24784;45.582;5.276;2023-03-21T13:43:50;19.80;79.20
39017;DHT22;24784;45.582;5.276;2023-03-21T13:48:58;19.40;75.60
39017;DHT22;24784;45.582;5.276;2023-03-21T13:54:13;19.10;76.90
39017;DHT22;24784;45.582;5.276;2023-03-21T13:59:11;19.00;75.50
39017;DHT22;24784;45.582;5.276;2023-03-21T14:01:39;19.20;76.00
39017;DHT22;24784;45.582;5.276;2023-03-21T14:04:19;19.30;76.10
39017;DHT22;24784;45.582;5.276;2023-03-21T14:07:03;19.00;75.10
39017;DHT22;24784;45.582;5.276;2023-03-21T14:09:33;18.80;75.70
39017;DHT22;24784;45.582;5.276;2023-03-21T14:12:02;18.80;76.10
39017;DHT22;24784;45.582;5.276;2023-03-21T14:14:39;18.70;75.50
39017;DHT22;24784;45.582;5.276;2023-03-21T14:17:35;18.90;76.30
39017;DHT22;24784;45.582;5.276;2023-03-21T14:20:25;19.10;75.20
39017;DHT22;24784;45.582;5.276;2023-03-21T14:22:51;18.80;73.40
39017;DHT22;24784;45.582;5.276;2023-03-21T14:25:20;18.80;74.10
39017;DHT22;24784;45.582;5.276;2023-03-21T14:27:48;18.70;74.60
39017;DHT22;24784;45.582;5.276;2023-03-21T14:30:52;18.70;76.20
39017;DHT22;24784;45.582;5.276;2023-03-21T14:33:31;18.70;74.50
39017;DHT22;24784;45.582;5.276;2023-03-21T14:36:03;18.70;76.70
39017;DHT22;24784;45.582;5.276;2023-03-21T14:38:36;18.80;76.70
39017;DHT22;24784;45.582;5.276;2023-03-21T14:41:03;18.90;76.40
39017;DHT22;24784;45.582;5.276;2023-03-21T14:43:29;18.50;74.10
39017;DHT22;24784;45.582;5.276;2023-03-21T14:45:59;18.40;76.50
39017;DHT22;24784;45.582;5.276;2023-03-21T14:48:33;18.50;74.80
39017;DHT22;24784;45.582;5.276;2023-03-21T14:51:08;18.60;75.10
39017;DHT22;24784;45.582;5.276;2023-03-21T14:53:42;18.60;75.30
39017;DHT22;24784;45.582;5.276;2023-03-21T14:56:24;18.60;74.60
39017;DHT22;24784;45.582;5.276;2023-03-21T14:58:51;18.30;75.20
39017;DHT22;24784;45.582;5.276;2023-03-21T15:01:30;18.50;76.00
39017;DHT22;24784;45.582;5.276;2023-03-21T15:03:58;18.60;76.70
39017;DHT22;24784;45.582;5.276;2023-03-21T15:06:24;18.50;75.20
39017;DHT22;24784;45.582;5.276;2023-03-21T15:09:21;18.30;74.10
39017;DHT22;24784;45.582;5.276;2023-03-21T15:11:50;18.30;74.60
39017;DHT22;24784;45.582;5.276;2023-03-21T15:14:33;18.30;76.30
39017;DHT22;24784;45.582;5.276;2023-03-21T15:17:01;18.00;75.60
39017;DHT22;24784;45.582;5.276;2023-03-21T15:19:31;17.90;76.60
39017;DHT22;24784;45.582;5.276;2023-03-21T15:22:07;17.90;75.50
39017;DHT22;24784;45.582;5.276;2023-03-21T15:24:38;18.10;76.20
39017;DHT22;24784;45.582;5.276;2023-03-21T15:27:11;18.00;74.20
39017;DHT22;24784;45.582;5.276;2023-03-21T15:29:38;17.80;73.50
39017;DHT22;24784;45.582;5.276;2023-03-21T15:32:12;17.70;75.30
39017;DHT22;24784;45.582;5.276;2023-03-21T15:34:39;17.80;76.40
39017;DHT22;24784;45.582;5.276;2023-03-21T15:37:07;17.90;76.70
39017;DHT22;24784;45.582;5.276;2023-03-21T15:39:34;17.90;76.50
39017;DHT22;24784;45.582;5.276;2023-03-21T15:42:04;17.70;76.10
39017;DHT22;24784;45.582;5.276;2023-03-21T15:44:32;17.60;75.10
39017;DHT22;24784;45.582;5.276;2023-03-21T15:46:58;17.40;75.30
39017;DHT22;24784;45.582;5.276;2023-03-21T15:54:35;17.20;77.50
39017;DHT22;24784;45.582;5.276;2023-03-21T15:57:23;17.20;77.80
39017;DHT22;24784;45.582;5.276;2023-03-21T15:59:54;17.00;74.90
39017;DHT22;24784;45.582;5.276;2023-03-21T16:02:23;17.00;76.10
39017;DHT22;24784;45.582;5.276;2023-03-21T16:05:02;17.00;76.80
39017;DHT22;24784;45.582;5.276;2023-03-21T16:07:44;17.00;77.30
39017;DHT22;24784;45.582;5.276;2023-03-21T16:10:30;17.00;77.90
39017;DHT22;24784;45.582;5.276;2023-03-21T16:12:56;16.90;77.20
39017;DHT22;24784;45.582;5.276;2023-03-21T16:15:24;16.90;79.50
39017;DHT22;24784;45.582;5.276;2023-03-21T16:17:56;16.90;78.70
39017;DHT22;24784;45.582;5.276;2023-03-21T16:20:28;16.90;78.50
39017;DHT22;24784;45.582;5.276;2023-03-21T16:22:57;16.90;79.30
39017;DHT22;24784;45.582;5.276;2023-03-21T16:25:23;16.70;79.50
39017;DHT22;24784;45.582;5.276;2023-03-21T16:27:49;16.50;76.00
39017;DHT22;24784;45.582;5.276;2023-03-21T16:30:19;16.40;75.80
39017;DHT22;24784;45.582;5.276;2023-03-21T16:32:46;16.50;75.70
39017;DHT22;24784;45.582;5.276;2023-03-21T16:35:12;16.40;74.90
39017;DHT22;24784;45.582;5.276;2023-03-21T16:37:38;16.50;78.50
39017;DHT22;24784;45.582;5.276;2023-03-21T16:40:16;16.40;78.00
39017;DHT22;24784;45.582;5.276;2023-03-21T16:42:42;16.50;76.90
39017;DHT22;24784;45.582;5.276;2023-03-21T16:45:09;16.50;76.80
39017;DHT22;24784;45.582;5.276;2023-03-21T16:47:35;16.40;79.00
39017;DHT22;24784;45.582;5.276;2023-03-21T16:50:01;16.40;79.60
39017;DHT22;24784;45.582;5.276;2023-03-21T16:52:27;16.40;78.50
39017;DHT22;24784;45.582;5.276;2023-03-21T16:54:52;16.20;77.50
39017;DHT22;24784;45.582;5.276;2023-03-21T16:57:25;16.10;81.00
39017;DHT22;24784;45.582;5.276;2023-03-21T16:59:54;16.00;81.20
39017;DHT22;24784;45.582;5.276;2023-03-21T17:02:21;15.80;84.70
39017;DHT22;24784;45.582;5.276;2023-03-21T17:04:48;15.50;86.30
39017;DHT22;24784;45.582;5.276;2023-03-21T17:07:14;15.30;87.10
39017;DHT22;24784;45.582;5.276;2023-03-21T17:09:41;15.10;88.10
39017;DHT22;24784;45.582;5.276;2023-03-21T17:12:15;15.00;88.90
39017;DHT22;24784;45.582;5.276;2023-03-21T17:14:43;14.80;89.40
39017;DHT22;24784;45.582;5.276;2023-03-21T17:17:10;14.80;89.10
39017;DHT22;24784;45.582;5.276;2023-03-21T17:19:36;14.80;89.30
39017;DHT22;24784;45.582;5.276;2023-03-21T17:22:02;14.80;90.20
39017;DHT22;24784;45.582;5.276;2023-03-21T17:24:27;14.60;90.40
39017;DHT22;24784;45.582;5.276;2023-03-21T17:26:53;14.50;91.60
39017;DHT22;24784;45.582;5.276;2023-03-21T17:29:19;14.50;91.20
39017;DHT22;24784;45.582;5.276;2023-03-21T17:31:45;14.50;91.20
39017;DHT22;24784;45.582;5.276;2023-03-21T17:34:13;14.40;91.60
39017;DHT22;24784;45.582;5.276;2023-03-21T17:36:40;14.40;92.00
39017;DHT22;24784;45.582;5.276;2023-03-21T17:39:11;14.10;91.10
39017;DHT22;24784;45.582;5.276;2023-03-21T17:41:39;13.90;92.20